Bon Air, Alabama
Current Conditions -  °F | °C
As of 11:55 AM on Saturday 25 Oct 2014 (Local Time) from KSCD Reporting Station
Clear Clear  
Wind Chill: 70°   Ceiling: Unl
Heat Index: 70°   Visibility: 10mi
Dew Point: 53°   Wind: 3mph
Humidity: 54%   Direction: 350°N
Pressure: 30.12"   Gusts: NA
Location:  33.26°N, 86.34°W
Report Text: KSCD 251655Z AUTO 35003KT 10SM CLR 21/12 A3012 RMK AO2 T02130117
Loading
Personal Weather Stations






























Interactive Weather Map
Tropical Storm Tracking
New forecast layout! Learn more

10-Day Weather Forecast

Advertisements
Track Severe Weather on mobile